Time;durP1;ratioP1;P1;durP2;ratioP2;P2;SDS_P1;SDS_P2;PMS_P1;PMS_P2;Temp;Humidity;BMP_temperature;BMP_pressure;BME280_temperature;BME280_humidity;BME280_pressure;Samples;Min_cycle;Max_cycle;Signal;HPM_P1;HPM_P2
2022/04/29 00:02:35;;;;;;;;;;;;;;;18.44;48.24;101756.28;4716301;30;19923;-72
2022/04/29 00:05:20;;;;;;;;;;;;;;;18.50;48.75;101752.16;4716196;30;20311;-71
2022/04/29 00:08:05;;;;;;;;;;;;;;;18.31;47.39;101754.66;4716251;30;19923;-72
2022/04/29 00:10:49;;;;;;;;;;;;;;;18.34;48.46;101765.00;4716297;30;19923;-72
2022/04/29 00:13:34;;;;;;;;;;;;;;;18.24;47.63;101754.41;4716558;30;20314;-72
2022/04/29 00:16:18;;;;;;;;;;;;;;;18.31;48.84;101758.22;4716131;30;19927;-72
2022/04/29 00:19:03;;;;;;;;;;;;;;;18.32;49.06;101750.78;4719203;30;19923;-72
2022/04/29 00:21:48;;;;;;;;;;;;;;;18.34;49.09;101754.78;4719178;30;19923;-71
2022/04/29 00:24:32;;;;;;;;;;;;;;;18.28;48.94;101747.09;4719133;30;19923;-72
2022/04/29 00:27:17;;;;;;;;;;;;;;;18.31;49.24;101751.91;4731330;30;19922;-72
2022/04/29 00:30:03;;;;;;;;;;;;;;;18.35;49.29;101745.38;4719049;30;20411;-71
2022/04/29 00:32:48;;;;;;;;;;;;;;;18.34;49.05;101745.72;4719096;30;19923;-72
2022/04/29 00:35:33;;;;;;;;;;;;;;;18.35;49.18;101744.56;4718964;30;19923;-71
2022/04/29 00:38:18;;;;;;;;;;;;;;;18.33;49.16;101736.66;4718987;30;19935;-72
2022/04/29 00:41:03;;;;;;;;;;;;;;;18.36;49.36;101738.72;4718896;30;20294;-71
2022/04/29 00:43:57;;;;;;;;;;;;;;;18.37;49.42;101731.28;4718966;30;19923;-72
2022/04/29 00:46:42;;;;;;;;;;;;;;;18.36;49.36;101735.16;4718686;30;19923;-72
2022/04/29 00:49:27;;;;;;;;;;;;;;;18.35;49.56;101731.59;4734401;30;19922;-72
2022/04/29 00:52:16;;;;;;;;;;;;;;;18.27;49.18;101732.53;4718814;30;20399;-72
2022/04/29 00:55:04;;;;;;;;;;;;;;;18.32;49.27;101734.25;4735806;30;19923;-73
2022/04/29 00:57:52;;;;;;;;;;;;;;;18.35;49.40;101725.28;4718689;30;19926;-71
2022/04/29 01:00:38;;;;;;;;;;;;;;;18.35;49.47;101739.06;4718625;30;19923;-71
2022/04/29 01:03:25;;;;;;;;;;;;;;;18.33;49.48;101738.63;4718588;30;19923;-72
2022/04/29 01:06:09;;;;;;;;;;;;;;;18.26;49.62;101733.66;4718649;30;20315;-72
2022/04/29 01:08:54;;;;;;;;;;;;;;;18.28;49.72;101733.34;4718545;30;19927;-72
2022/04/29 01:11:39;;;;;;;;;;;;;;;18.33;49.62;101741.38;4718338;30;20189;-72
2022/04/29 01:14:23;;;;;;;;;;;;;;;18.25;49.39;101742.25;4718425;30;19923;-72
2022/04/29 01:17:08;;;;;;;;;;;;;;;18.26;49.32;101735.63;4718314;30;19931;-72
2022/04/29 01:19:53;;;;;;;;;;;;;;;18.18;49.42;101729.09;4718375;30;19923;-72
2022/04/29 01:22:37;;;;;;;;;;;;;;;18.21;49.76;101735.84;4718187;30;19922;-72
2022/04/29 01:25:22;;;;;;;;;;;;;;;18.16;49.77;101725.84;4718202;30;19923;-72
2022/04/29 01:28:12;;;;;;;;;;;;;;;18.17;50.05;101732.16;4717911;30;19923;-72
2022/04/29 01:31:03;;;;;;;;;;;;;;;18.17;50.04;101723.91;4718110;30;19922;-72
2022/04/29 01:33:47;;;;;;;;;;;;;;;18.15;50.15;101727.00;4717890;30;19923;-72
2022/04/29 01:36:33;;;;;;;;;;;;;;;18.19;50.05;101727.91;4717951;30;19923;-72
2022/04/29 01:39:18;;;;;;;;;;;;;;;18.23;50.10;101725.31;4727922;30;19923;-71
2022/04/29 01:42:03;;;;;;;;;;;;;;;18.25;50.01;101723.00;4735395;30;19922;-72
2022/04/29 01:44:48;;;;;;;;;;;;;;;18.23;50.08;101725.31;4735301;30;19923;-72
2022/04/29 01:47:32;;;;;;;;;;;;;;;18.22;49.77;101720.94;4735248;30;19922;-72
2022/04/29 01:50:38;;;;;;;;;;;;;;;18.25;49.92;101720.22;4747950;30;19922;-71
2022/04/29 01:53:23;;;;;;;;;;;;;;;18.22;50.02;101718.19;4735267;30;19922;-72
2022/04/29 01:56:07;;;;;;;;;;;;;;;18.13;50.16;101717.47;4735010;30;19922;-72
2022/04/29 01:58:52;;;;;;;;;;;;;;;18.02;49.83;101719.06;4735213;30;19926;-72
2022/04/29 02:01:37;;;;;;;;;;;;;;;17.96;50.11;101715.72;4734988;30;20307;-71
2022/04/29 02:04:21;;;;;;;;;;;;;;;17.93;50.49;101721.88;4735322;30;19922;-72
2022/04/29 02:07:06;;;;;;;;;;;;;;;17.59;48.07;101716.69;4734831;30;19923;-72
2022/04/29 02:09:56;;;;;;;;;;;;;;;17.39;48.08;101710.91;4734973;30;20388;-72
2022/04/29 02:12:43;;;;;;;;;;;;;;;17.39;48.19;101708.16;4735010;30;19922;-72
2022/04/29 02:15:39;;;;;;;;;;;;;;;17.42;48.10;101707.47;4738730;30;19922;-71
2022/04/29 02:18:26;;;;;;;;;;;;;;;17.40;48.35;101706.22;4734734;30;19927;-74
2022/04/29 02:21:11;;;;;;;;;;;;;;;17.47;49.07;101701.75;4734953;30;19922;-71
2022/04/29 02:23:56;;;;;;;;;;;;;;;17.59;50.08;101701.03;4734735;30;19923;-72
2022/04/29 02:26:41;;;;;;;;;;;;;;;17.50;48.44;101703.03;4734713;30;19922;-72
2022/04/29 02:29:29;;;;;;;;;;;;;;;17.47;48.67;101698.22;4734722;30;19926;-72
2022/04/29 02:32:13;;;;;;;;;;;;;;;17.44;48.66;101693.38;4734493;30;19923;-73
2022/04/29 02:34:58;;;;;;;;;;;;;;;17.45;49.06;101686.75;4734560;30;19922;-71
2022/04/29 02:37:43;;;;;;;;;;;;;;;17.46;48.66;101697.41;4739332;30;19934;-72
2022/04/29 02:40:29;;;;;;;;;;;;;;;17.60;50.51;101702.66;4733954;30;19927;-72
2022/04/29 02:43:13;;;;;;;;;;;;;;;17.65;50.92;101693.38;4734414;30;19923;-72
2022/04/29 02:45:58;;;;;;;;;;;;;;;17.67;51.02;101691.91;4734403;30;20383;-72
2022/04/29 02:48:43;;;;;;;;;;;;;;;17.68;51.09;101699.00;4734325;30;20303;-71
2022/04/29 02:51:28;;;;;;;;;;;;;;;17.68;51.31;101693.50;4734463;30;19927;-72
2022/04/29 02:54:13;;;;;;;;;;;;;;;17.67;51.29;101686.41;4734283;30;20383;-72
2022/04/29 02:56:58;;;;;;;;;;;;;;;17.69;51.29;101697.88;4734320;30;19923;-72
2022/04/29 02:59:59;;;;;;;;;;;;;;;17.70;51.27;101701.44;4734204;30;19923;-72
2022/04/29 03:02:44;;;;;;;;;;;;;;;17.67;51.27;101699.38;4734331;30;20291;-72
2022/04/29 03:05:29;;;;;;;;;;;;;;;17.69;51.41;101697.06;4734128;30;19926;-72
2022/04/29 03:08:13;;;;;;;;;;;;;;;17.65;50.84;101699.69;4739168;30;19923;-72
2022/04/29 03:11:00;;;;;;;;;;;;;;;17.66;51.62;101698.56;4734368;30;19930;-71
2022/04/29 03:13:45;;;;;;;;;;;;;;;17.66;51.37;101698.56;4734193;30;20391;-71
2022/04/29 03:16:31;;;;;;;;;;;;;;;17.57;50.43;101691.50;4733939;30;19922;-72
2022/04/29 03:19:17;;;;;;;;;;;;;;;17.58;50.89;101691.16;4734109;30;20307;-72
2022/04/29 03:22:01;;;;;;;;;;;;;;;17.56;51.19;101693.44;4734368;30;19922;-72
2022/04/29 03:24:46;;;;;;;;;;;;;;;17.50;49.74;101689.28;4734110;30;19923;-72
2022/04/29 03:27:30;;;;;;;;;;;;;;;17.45;49.20;101686.75;4734041;30;19931;-72
2022/04/29 03:30:15;;;;;;;;;;;;;;;17.41;48.71;101672.88;4738877;30;19923;-72
2022/04/29 03:33:00;;;;;;;;;;;;;;;17.52;50.59;101678.78;4734068;30;20296;-72
2022/04/29 03:35:53;;;;;;;;;;;;;;;17.49;50.69;101679.44;4733893;30;19922;-72
2022/04/29 03:38:43;;;;;;;;;;;;;;;17.54;51.27;101676.47;4733903;30;19926;-70
2022/04/29 03:41:31;;;;;;;;;;;;;;;17.35;48.13;101682.47;4733933;30;19923;-72
2022/04/29 03:44:20;;;;;;;;;;;;;;;17.42;49.58;101685.47;4733923;30;19926;-72
2022/04/29 03:47:05;;;;;;;;;;;;;;;17.52;50.90;101687.03;4734034;30;19922;-72
2022/04/29 03:50:08;;;;;;;;;;;;;;;17.52;51.39;101689.78;4734123;30;19922;-71
2022/04/29 03:53:03;;;;;;;;;;;;;;;17.54;51.50;101685.53;4737225;30;19922;-73
2022/04/29 03:55:50;;;;;;;;;;;;;;;17.52;51.73;101684.28;4739894;30;19923;-72
2022/04/29 03:58:35;;;;;;;;;;;;;;;17.47;50.65;101681.72;4736932;30;19926;-71
2022/04/29 04:01:21;;;;;;;;;;;;;;;17.51;51.61;101688.16;4737173;30;20384;-72
2022/04/29 04:04:12;;;;;;;;;;;;;;;17.51;51.64;101693.66;4741913;30;19923;-72
2022/04/29 04:07:01;;;;;;;;;;;;;;;17.50;51.91;101692.84;4736985;30;20123;-72
2022/04/29 04:09:56;;;;;;;;;;;;;;;17.51;51.74;101693.66;4736863;30;19922;-72
2022/04/29 04:12:41;;;;;;;;;;;;;;;17.50;51.68;101703.03;4736926;30;20383;-72
2022/04/29 04:15:44;;;;;;;;;;;;;;;17.40;51.70;101687.75;4736757;30;19923;-72
2022/04/29 04:18:29;;;;;;;;;;;;;;;17.51;51.82;101710.97;4736789;30;19931;-71
2022/04/29 04:21:13;;;;;;;;;;;;;;;17.49;51.88;101710.50;4736700;30;19922;-74
2022/04/29 04:23:58;;;;;;;;;;;;;;;17.46;50.96;101710.38;4736634;30;20393;-72
2022/04/29 04:26:43;;;;;;;;;;;;;;;17.45;51.11;101715.06;4736647;30;19923;-72
2022/04/29 04:29:32;;;;;;;;;;;;;;;17.40;50.90;101714.47;4736323;30;19922;-72
2022/04/29 04:32:18;;;;;;;;;;;;;;;17.39;50.79;101712.84;4741367;30;19922;-72
2022/04/29 04:35:03;;;;;;;;;;;;;;;17.40;51.08;101712.50;4741113;30;20379;-72
2022/04/29 04:37:48;;;;;;;;;;;;;;;17.28;49.51;101722.63;4736286;30;19926;-72
2022/04/29 04:40:42;;;;;;;;;;;;;;;17.20;48.10;101721.56;4736192;30;19923;-72
2022/04/29 04:43:27;;;;;;;;;;;;;;;17.13;48.18;101717.75;4736332;30;19922;-72
2022/04/29 04:46:13;;;;;;;;;;;;;;;17.15;49.08;101723.72;4736195;30;19923;-72
2022/04/29 04:48:57;;;;;;;;;;;;;;;17.19;48.77;101719.16;4741695;30;19923;-72
2022/04/29 04:52:01;;;;;;;;;;;;;;;17.19;48.93;101714.47;4736266;30;19922;-72
2022/04/29 04:54:46;;;;;;;;;;;;;;;17.23;49.87;101714.59;4741253;30;19923;-71
2022/04/29 04:57:30;;;;;;;;;;;;;;;17.20;49.39;101718.81;4736001;30;19927;-71
2022/04/29 05:00:15;;;;;;;;;;;;;;;17.18;48.74;101717.53;4736114;30;19922;-71
2022/04/29 05:03:18;;;;;;;;;;;;;;;17.05;47.80;101713.94;4747451;24;19930;-72
2022/04/29 05:06:22;;;;;;;;;;;;;;;17.01;47.16;101713.81;4724605;30;19930;-68
2022/04/29 05:09:08;;;;;;;;;;;;;;;17.05;48.07;101720.22;4722412;30;19923;-68
2022/04/29 05:11:54;;;;;;;;;;;;;;;17.06;47.93;101715.53;4731331;30;20418;-68
2022/04/29 05:14:58;;;;;;;;;;;;;;;17.04;47.98;101718.63;4727424;30;19922;-68
2022/04/29 05:17:44;;;;;;;;;;;;;;;17.00;47.82;101725.94;4716665;30;19922;-68
2022/04/29 05:20:45;;;;;;;;;;;;;;;16.94;47.61;101730.00;4716155;30;19927;-67
2022/04/29 05:23:30;;;;;;;;;;;;;;;17.01;48.26;101724.78;4717980;30;19922;-68
2022/04/29 05:26:33;;;;;;;;;;;;;;;16.99;48.28;101718.00;4700946;30;19923;-67
2022/04/29 05:29:37;;;;;;;;;;;;;;;16.97;48.58;101729.31;4700790;30;20284;-67
2022/04/29 05:32:40;;;;;;;;;;;;;;;16.92;48.42;101725.97;4715617;30;19922;-68
2022/04/29 05:35:43;;;;;;;;;;;;;;;16.98;48.77;101722.69;4718039;30;19935;-67
2022/04/29 05:42:18;;;;;;;;;;;;;;;17.10;48.77;101731.03;4700389;30;20298;-67
2022/04/29 05:45:03;;;;;;;;;;;;;;;17.16;49.38;101736.31;4711347;30;19923;-69
2022/04/29 05:47:48;;;;;;;;;;;;;;;17.21;50.22;101727.88;4700468;30;19923;-67
2022/04/29 05:50:32;;;;;;;;;;;;;;;17.23;50.94;101731.88;4700065;30;19923;-67
2022/04/29 05:53:18;;;;;;;;;;;;;;;17.21;50.45;101736.13;4700389;30;19923;-68
2022/04/29 05:56:12;;;;;;;;;;;;;;;17.23;50.47;101739.31;4700117;30;19923;-67
2022/04/29 05:58:57;;;;;;;;;;;;;;;17.27;50.58;101746.56;4700215;30;19923;-69
2022/04/29 06:02:00;;;;;;;;;;;;;;;17.32;51.04;101754.63;4717629;30;19927;-69
2022/04/29 06:05:03;;;;;;;;;;;;;;;17.36;50.81;101752.81;4717366;30;19923;-68
2022/04/29 06:07:48;;;;;;;;;;;;;;;17.39;50.05;101751.34;4717388;30;19931;-68
2022/04/29 06:10:41;;;;;;;;;;;;;;;17.45;51.14;101756.31;4717639;30;19923;-66
2022/04/29 06:13:25;;;;;;;;;;;;;;;17.51;49.10;101754.16;4717398;30;19923;-66
2022/04/29 06:16:38;;;;;;;;;;;;;;;17.59;46.65;101766.22;4718711;30;19922;-67
2022/04/29 06:19:58;;;;;;;;;;;;;;;17.63;47.98;101762.47;4723070;30;19923;-69
2022/04/29 06:23:01;;;;;;;;;;;;;;;17.66;47.71;101753.56;4717145;30;19930;-69
2022/04/29 06:25:51;;;;;;;;;;;;;;;17.72;44.79;101757.72;4717047;30;20322;-66
2022/04/29 06:28:37;;;;;;;;;;;;;;;17.73;43.58;101762.06;4717059;30;19923;-68
2022/04/29 06:31:23;;;;;;;;;;;;;;;17.76;42.74;101764.16;4721954;30;19923;-68
2022/04/29 06:34:31;;;;;;;;;;;;;;;17.86;42.58;101751.94;4722897;30;19923;-67
2022/04/29 06:37:20;;;;;;;;;;;;;;;17.88;40.56;101755.94;4716110;30;19923;-66
2022/04/29 06:40:08;;;;;;;;;;;;;;;17.93;40.90;101754.91;4716986;30;19927;-65
2022/04/29 06:42:57;;;;;;;;;;;;;;;18.01;41.00;101753.22;4716867;30;19927;-66
2022/04/29 06:46:00;;;;;;;;;;;;;;;18.06;42.68;101758.53;4717178;30;19923;-69
2022/04/29 06:49:05;;;;;;;;;;;;;;;18.07;40.84;101754.63;4705238;30;20304;-67
2022/04/29 06:52:08;;;;;;;;;;;;;;;18.13;39.33;101758.78;4699503;30;19923;-67
2022/04/29 06:54:59;;;;;;;;;;;;;;;18.20;40.28;101762.56;4699396;30;19923;-67
2022/04/29 06:57:46;;;;;;;;;;;;;;;18.20;39.18;101761.75;4699359;30;19923;-69
2022/04/29 07:00:31;;;;;;;;;;;;;;;18.32;37.05;101767.31;4699471;30;19931;-67
2022/04/29 07:03:16;;;;;;;;;;;;;;;18.41;36.16;101759.72;4714034;30;19923;-66
2022/04/29 07:06:04;;;;;;;;;;;;;;;18.38;36.70;101746.66;4699333;30;19927;-67
2022/04/29 07:08:49;;;;;;;;;;;;;;;18.50;37.04;101749.41;4699274;30;19923;-67
2022/04/29 07:11:54;;;;;;;;;;;;;;;18.56;37.02;101750.00;4699316;30;19923;-67
2022/04/29 07:14:51;;;;;;;;;;;;;;;18.59;35.50;101746.59;4699225;30;19923;-67
2022/04/29 07:17:35;;;;;;;;;;;;;;;18.65;36.56;101743.25;4699222;30;19924;-67
2022/04/29 07:20:23;;;;;;;;;;;;;;;18.71;35.13;101749.31;4699177;30;19927;-69
2022/04/29 07:23:08;;;;;;;;;;;;;;;18.74;34.36;101749.44;4699272;30;19923;-67
2022/04/29 07:25:53;;;;;;;;;;;;;;;18.83;32.08;101746.56;4699538;30;20292;-68
2022/04/29 07:28:37;;;;;;;;;;;;;;;18.88;32.79;101756.56;4702667;30;19923;-67
2022/04/29 07:31:22;;;;;;;;;;;;;;;18.95;32.57;101748.50;4707505;30;19927;-67
2022/04/29 07:44:09;;;;;;;;;;;;;;;19.11;30.05;101758.47;4713464;30;19927;-67
2022/04/29 07:46:57;;;;;;;;;;;;;;;19.22;27.34;101762.38;4719658;30;19922;-68
2022/04/29 07:50:11;;;;;;;;;;;;;;;19.39;26.18;101752.22;4719854;30;19922;-68
2022/04/29 07:52:57;;;;;;;;;;;;;;;19.47;26.85;101756.81;4719468;30;19931;-66
2022/04/29 07:55:42;;;;;;;;;;;;;;;19.50;25.97;101759.69;4719423;30;20388;-66
2022/04/29 07:58:27;;;;;;;;;;;;;;;19.45;26.29;101759.94;4719550;30;19923;-68
2022/04/29 08:01:12;;;;;;;;;;;;;;;19.51;25.54;101764.03;4719477;30;19930;-68
2022/04/29 08:04:01;;;;;;;;;;;;;;;19.51;28.97;101753.00;4717172;30;20380;-67
2022/04/29 08:06:49;;;;;;;;;;;;;;;19.51;27.11;101764.03;4717558;30;19923;-67
2022/04/29 08:09:34;;;;;;;;;;;;;;;19.59;26.59;101763.09;4719132;30;19923;-67
2022/04/29 08:12:21;;;;;;;;;;;;;;;19.63;27.82;101754.91;4719131;30;19923;-66
2022/04/29 08:15:26;;;;;;;;;;;;;;;19.70;29.40;101757.88;4719373;30;19923;-66
2022/04/29 08:18:18;;;;;;;;;;;;;;;19.75;28.54;101756.81;4719124;30;19923;-68
2022/04/29 08:21:03;;;;;;;;;;;;;;;19.76;28.74;101753.69;4718963;30;19927;-68
2022/04/29 08:23:48;;;;;;;;;;;;;;;19.82;29.26;101751.47;4719073;30;19922;-68
2022/04/29 08:26:33;;;;;;;;;;;;;;;19.95;26.98;101755.81;4708333;30;19923;-68
2022/04/29 08:29:18;;;;;;;;;;;;;;;19.99;27.53;101763.03;4701413;30;19923;-67
2022/04/29 08:32:04;;;;;;;;;;;;;;;20.02;28.20;101764.25;4710380;30;19923;-68
2022/04/29 08:34:49;;;;;;;;;;;;;;;20.07;27.94;101748.25;4718950;30;19922;-68
2022/04/29 08:37:33;;;;;;;;;;;;;;;20.10;28.94;101763.31;4709237;30;19923;-68
2022/04/29 08:40:18;;;;;;;;;;;;;;;20.23;27.58;101755.75;4701460;30;20288;-67
2022/04/29 08:43:04;;;;;;;;;;;;;;;20.36;27.03;101760.88;4701392;30;20296;-68
2022/04/29 08:45:50;;;;;;;;;;;;;;;20.47;26.69;101758.34;4711337;30;19923;-69
2022/04/29 08:48:55;;;;;;;;;;;;;;;20.49;26.31;101759.63;4717919;30;19923;-69
2022/04/29 08:51:40;;;;;;;;;;;;;;;20.53;26.64;101753.38;4718142;30;19923;-69
2022/04/29 09:00:31;;;;;;;;;;;;;;;20.67;27.07;101745.44;4701200;30;19923;-67
2022/04/29 09:03:20;;;;;;;;;;;;;;;20.73;27.77;101741.22;4701028;30;20384;-68
2022/04/29 09:06:06;;;;;;;;;;;;;;;20.72;28.23;101750.69;4703122;30;19923;-68
2022/04/29 09:08:50;;;;;;;;;;;;;;;20.80;28.38;101744.16;4702830;30;19923;-68
2022/04/29 09:11:35;;;;;;;;;;;;;;;20.78;28.37;101738.19;4718218;30;19923;-68
2022/04/29 09:14:24;;;;;;;;;;;;;;;20.92;26.76;101728.28;4718350;30;20384;-68
2022/04/29 09:17:27;;;;;;;;;;;;;;;21.04;25.59;101732.06;4712863;30;19923;-68
2022/04/29 09:20:12;;;;;;;;;;;;;;;21.09;26.04;101727.06;4700752;30;20288;-68
2022/04/29 09:22:57;;;;;;;;;;;;;;;21.12;26.68;101723.56;4700753;30;19927;-68
2022/04/29 09:26:03;;;;;;;;;;;;;;;21.11;29.05;101716.44;4700721;30;19923;-69
2022/04/29 09:29:26;;;;;;;;;;;;;;;21.33;25.83;101721.28;4701257;30;19924;-68
2022/04/29 09:32:48;;;;;;;;;;;;;;;21.39;25.61;101718.22;4721257;30;19922;-68
2022/04/29 09:36:02;;;;;;;;;;;;;;;21.48;25.67;101716.06;4703993;30;19927;-67
2022/04/29 09:41:58;;;;;;;;;;;;;;;21.68;24.91;101707.38;4700372;30;19927;-69
2022/04/29 09:44:42;;;;;;;;;;;;;;;21.66;25.65;101704.16;4715576;30;19927;-69
2022/04/29 09:47:32;;;;;;;;;;;;;;;21.71;26.20;101697.50;4718112;30;20384;-68
2022/04/29 09:50:16;;;;;;;;;;;;;;;21.73;25.76;101695.19;4716806;30;19923;-68
2022/04/29 09:53:15;;;;;;;;;;;;;;;21.84;26.66;101696.16;4709913;30;19923;-68
2022/04/29 09:56:04;;;;;;;;;;;;;;;21.92;24.97;101688.78;4717352;30;19923;-69
2022/04/29 09:58:48;;;;;;;;;;;;;;;21.98;24.67;101692.91;4717509;30;19922;-69
2022/04/29 10:01:35;;;;;;;;;;;;;;;21.96;25.75;101682.19;4716856;30;20465;-69
2022/04/29 10:04:20;;;;;;;;;;;;;;;22.04;24.80;101685.88;4705344;30;19923;-69
2022/04/29 10:07:06;;;;;;;;;;;;;;;22.27;24.62;101677.56;4707085;30;19923;-69
2022/04/29 10:09:55;;;;;;;;;;;;;;;22.36;25.10;101665.03;4716865;30;20384;-69
2022/04/29 10:12:45;;;;;;;;;;;;;;;22.46;23.93;101677.44;4699956;30;19923;-68
2022/04/29 10:15:48;;;;;;;;;;;;;;;22.52;24.33;101665.69;4700129;30;19924;-68
2022/04/29 10:22:18;;;;;;;;;;;;;;;22.46;23.79;101661.63;4704552;30;19923;-69
2022/04/29 10:25:07;;;;;;;;;;;;;;;22.43;25.25;101661.56;4716017;30;19923;-68
2022/04/29 10:27:53;;;;;;;;;;;;;;;22.60;24.75;101655.50;4717139;30;19922;-68
2022/04/29 10:30:38;;;;;;;;;;;;;;;22.53;26.02;101650.66;4710965;30;19922;-68
2022/04/29 10:33:23;;;;;;;;;;;;;;;22.46;25.79;101645.00;4712518;30;19926;-68
2022/04/29 10:36:08;;;;;;;;;;;;;;;22.63;25.30;101645.63;4716732;30;19923;-68
2022/04/29 10:39:00;;;;;;;;;;;;;;;22.66;26.84;101636.56;4716848;30;19931;-68
2022/04/29 10:42:06;;;;;;;;;;;;;;;22.69;25.64;101641.38;4711984;30;19922;-68
2022/04/29 10:45:01;;;;;;;;;;;;;;;22.78;25.76;101634.41;4698872;30;19923;-68
2022/04/29 10:47:48;;;;;;;;;;;;;;;22.78;26.21;101625.28;4699524;30;19923;-68
2022/04/29 10:50:53;;;;;;;;;;;;;;;22.89;25.87;101624.25;4699338;30;19927;-68
2022/04/29 10:54:36;;;;;;;;;;;;;;;22.91;26.88;101621.06;4717258;30;20396;-68
2022/04/29 10:57:44;;;;;;;;;;;;;;;22.90;26.35;101609.19;4705144;30;20300;-68
2022/04/29 11:00:36;;;;;;;;;;;;;;;22.97;25.26;101616.78;4712580;30;20418;-67
2022/04/29 11:03:37;;;;;;;;;;;;;;;23.13;25.07;101616.59;4722601;24;19923;31
2022/04/29 11:06:34;;;;;;;;;;;;;;;23.11;28.60;101613.41;4697132;30;21113;-83
2022/04/29 11:09:30;;;;;;;;;;;;;;;23.06;28.95;101589.53;4702371;30;20382;-83
2022/04/29 11:12:44;;;;;;;;;;;;;;;22.99;30.63;101584.75;4715211;30;19927;-81
2022/04/29 11:15:47;;;;;;;;;;;;;;;23.21;25.28;101593.31;4684845;30;19924;-81
2022/04/29 11:19:12;;;;;;;;;;;;;;;23.38;24.63;101585.16;4697658;30;19927;-81
2022/04/29 11:25:03;;;;;;;;;;;;;;;23.46;24.94;101574.97;4691928;30;19924;-82
2022/04/29 11:28:08;;;;;;;;;;;;;;;23.53;24.74;101569.47;4681738;30;19924;-82
2022/04/29 11:31:33;;;;;;;;;;;;;;;23.52;25.43;101567.84;4687067;30;19927;-82
2022/04/29 11:34:17;;;;;;;;;;;;;;;23.54;26.12;101559.94;4709948;30;20390;-80
2022/04/29 11:37:02;;;;;;;;;;;;;;;23.48;29.47;101561.47;4684978;30;20313;-79
2022/04/29 11:39:47;;;;;;;;;;;;;;;23.59;24.56;101556.81;4700962;30;19927;-81
2022/04/29 11:42:31;;;;;;;;;;;;;;;23.61;24.49;101554.47;4686230;30;19924;-83
2022/04/29 11:45:15;;;;;;;;;;;;;;;23.64;23.65;101553.69;4684808;30;19924;-81
2022/04/29 11:48:07;;;;;;;;;;;;;;;23.68;23.77;101548.16;4683417;30;19923;-82
2022/04/29 11:50:55;;;;;;;;;;;;;;;23.59;27.56;101545.72;4674076;30;19924;-83
2022/04/29 11:54:00;;;;;;;;;;;;;;;23.74;24.04;101539.09;4669326;30;19923;-81
2022/04/29 11:56:45;;;;;;;;;;;;;;;23.71;27.71;101533.53;4694540;30;19927;-84
2022/04/29 11:59:31;;;;;;;;;;;;;;;23.79;24.38;101541.53;4690619;30;19928;-81
2022/04/29 12:02:17;;;;;;;;;;;;;;;23.85;24.17;101533.63;4680612;30;19927;-81
2022/04/29 12:05:03;;;;;;;;;;;;;;;23.86;24.02;101532.44;4679741;30;19928;-80
2022/04/29 12:07:47;;;;;;;;;;;;;;;23.89;26.10;101531.66;4675766;30;19923;-81
2022/04/29 12:10:53;;;;;;;;;;;;;;;23.84;29.55;101530.06;4691715;30;19924;-81
2022/04/29 12:13:38;;;;;;;;;;;;;;;23.72;30.70;101524.78;4700184;30;19923;-81
2022/04/29 12:16:22;;;;;;;;;;;;;;;23.64;32.41;101523.16;4703380;30;19924;-82
2022/04/29 12:19:14;;;;;;;;;;;;;;;23.65;30.44;101523.94;4695434;30;19927;-82
2022/04/29 12:22:00;;;;;;;;;;;;;;;25.24;28.59;101515.63;4687862;30;19923;-78
2022/04/29 12:24:45;;;;;;;;;;;;;;;29.57;18.69;101519.63;4690057;30;19924;-76
2022/04/29 12:27:30;;;;;;;;;;;;;;;31.33;16.06;101515.28;4667676;30;19924;-77
2022/04/29 12:36:49;;;;;;;;;;;;;;;30.59;18.46;101505.72;4687111;30;19919;-76
2022/04/29 12:39:43;;;;;;;;;;;;;;;31.07;17.40;101505.09;4709530;30;19927;-75
2022/04/29 12:42:28;;;;;;;;;;;;;;;30.92;15.91;101504.59;4692734;30;19923;-77
2022/04/29 12:45:24;;;;;;;4.73;3.40;;;;;;;28.54;19.22;101501.53;4677521;30;20431;-80
2022/04/29 12:48:16;;;;;;;7.78;3.53;;;;;;;26.56;20.03;101487.19;4675400;30;20307;-77
2022/04/29 12:51:22;;;;;;;7.35;3.78;;;;;;;25.62;22.14;101480.66;4676243;30;20061;-80
2022/04/29 12:54:23;;;;;;;8.85;3.83;;;;;;;25.27;24.16;101467.50;4678523;30;20536;-77
2022/04/29 12:57:09;;;;;;;8.07;3.83;;;;;;;24.46;25.56;101466.09;4698262;30;20424;-77
2022/04/29 13:00:00;;;;;;;10.13;2.80;;;;;;;23.99;25.96;101474.56;4689777;30;20073;-80
2022/04/29 13:02:44;;;;;;;14.25;3.47;;;;;;;22.38;28.51;101459.56;4713219;30;20053;-79
2022/04/29 13:05:30;;;;;;;8.43;2.70;;;;;;;22.93;27.84;101457.84;4695245;30;20053;-78
2022/04/29 13:08:15;;;;;;;6.13;4.03;;;;;;;23.54;24.18;101460.00;4683729;30;20061;-81
2022/04/29 13:11:03;;;;;;;21.85;4.15;;;;;;;24.08;22.65;101473.03;4682722;30;20060;-80
2022/04/29 13:13:54;;;;;;;5.05;3.60;;;;;;;23.91;22.32;101461.84;4683640;30;20420;-80
2022/04/29 13:16:40;;;;;;;8.73;4.03;;;;;;;24.46;22.02;101466.09;4695490;30;20069;-79
2022/04/29 13:19:28;;;;;;;10.30;3.42;;;;;;;24.62;23.05;101449.88;4696959;30;20098;-79
2022/04/29 13:22:12;;;;;;;5.82;3.67;;;;;;;24.92;22.71;101446.78;4677421;30;20062;-80
2022/04/29 13:24:59;;;;;;;5.65;3.47;;;;;;;24.96;22.80;101444.00;4698767;30;20057;-80
2022/04/29 13:27:45;;;;;;;5.65;3.83;;;;;;;24.98;22.16;101433.28;4703397;30;20053;-79
2022/04/29 13:30:29;;;;;;;6.47;3.60;;;;;;;25.09;22.04;101434.09;4677006;30;20081;-79
2022/04/29 13:33:14;;;;;;;5.60;3.90;;;;;;;24.90;21.72;101431.66;4691728;30;20060;-79
2022/04/29 13:36:01;;;;;;;8.65;4.85;;;;;;;23.57;23.64;101431.44;4680953;30;20060;-78
2022/04/29 13:38:45;;;;;;;6.45;3.50;;;;;;;24.14;22.62;101420.66;4686465;30;20595;-80
2022/04/29 13:41:34;;;;;;;4.47;3.70;;;;;;;24.70;21.61;101409.75;4689164;30;20061;-80
2022/04/29 13:44:19;;;;;;;11.68;3.80;;;;;;;24.90;22.00;101412.97;4673894;30;20433;-80
2022/04/29 13:47:04;;;;;;;14.48;4.30;;;;;;;24.98;22.21;101408.22;4680992;30;20433;-79
2022/04/29 13:49:49;;;;;;;6.72;3.70;;;;;;;24.87;21.98;101412.94;4682995;30;20077;-80
2022/04/29 13:55:47;;;;;;;6.13;3.83;;;;;;;24.91;22.46;101406.22;4677298;30;20061;-79
2022/04/29 13:58:35;;;;;;;7.30;3.20;;;;;;;24.84;22.27;101400.63;4681156;30;20057;-80
2022/04/29 14:01:20;;;;;;;20.05;4.10;;;;;;;24.78;21.93;101398.63;4683637;30;20057;-78
2022/04/29 14:04:08;;;;;;;8.00;4.38;;;;;;;24.31;22.54;101391.38;4696004;30;20061;-78
2022/04/29 14:06:53;;;;;;;7.13;3.90;;;;;;;24.50;22.37;101394.59;4702552;30;20057;-79
2022/04/29 14:09:38;;;;;;;4.55;3.75;;;;;;;23.71;23.09;101387.13;4672102;30;20053;-82
2022/04/29 14:12:25;;;;;;;6.82;4.10;;;;;;;24.17;23.58;101386.56;4688453;30;20081;-79
2022/04/29 14:15:11;;;;;;;21.02;4.25;;;;;;;23.74;23.87;101383.56;4678406;30;20528;-81
2022/04/29 14:17:56;;;;;;;5.72;4.13;;;;;;;23.85;23.32;101380.84;4665744;30;20069;-81
2022/04/29 14:20:41;;;;;;;9.60;5.22;;;;;;;23.87;23.05;101381.25;4677382;30;20058;-79
2022/04/29 14:23:26;;;;;;;6.72;4.43;;;;;;;23.62;23.78;101369.97;4679040;30;20064;-79
2022/04/29 14:26:14;;;;;;;6.70;4.40;;;;;;;23.32;23.78;101369.38;4697497;30;20049;-82
2022/04/29 14:29:01;;;;;;;8.00;5.13;;;;;;;22.95;23.27;101361.97;4692297;30;20058;-79
2022/04/29 14:31:50;;;;;;;16.88;4.32;;;;;;;23.37;23.76;101371.78;4697387;30;20057;-81
2022/04/29 14:34:35;;;;;;;5.47;3.85;;;;;;;22.90;24.45;101354.00;4683741;30;20065;-78
2022/04/29 14:37:20;;;;;;;7.80;4.25;;;;;;;23.27;23.95;101364.97;4681723;30;20070;-78
2022/04/29 14:40:10;;;;;;;5.28;3.95;;;;;;;23.20;23.43;101356.63;4697379;30;20436;-81
2022/04/29 14:42:54;;;;;;;8.60;4.18;;;;;;;23.25;23.82;101353.47;4689429;30;20416;-79
2022/04/29 14:45:39;;;;;;;10.45;4.72;;;;;;;23.23;23.38;101353.06;4690532;30;20061;-81
2022/04/29 14:48:24;;;;;;;4.05;3.20;;;;;;;23.18;23.58;101342.31;4691035;30;20049;-77
2022/04/29 14:51:10;;;;;;;8.45;4.10;;;;;;;23.07;24.44;101335.09;4676002;30;20049;-81
2022/04/29 14:53:55;;;;;;;9.98;3.78;;;;;;;22.77;24.26;101326.91;4680152;30;20064;-80
2022/04/29 14:56:43;;;;;;;7.38;4.43;;;;;;;22.42;25.08;101330.13;4679354;30;20061;-80